sensor_id;sensor_type;location;lat;lon;timestamp;P1;durP1;ratioP1;P2;durP2;ratioP2
64871;SDS011;51351;51.450;6.614;2023-12-20T00:00:54;15.02;;;10.63;;
64871;SDS011;51351;51.450;6.614;2023-12-20T00:03:19;17.80;;;9.13;;
64871;SDS011;51351;51.450;6.614;2023-12-20T00:05:45;12.15;;;6.22;;
64871;SDS011;51351;51.450;6.614;2023-12-20T00:08:11;14.50;;;7.72;;
64871;SDS011;51351;51.450;6.614;2023-12-20T00:10:36;15.23;;;8.60;;
64871;SDS011;51351;51.450;6.614;2023-12-20T00:13:02;13.45;;;7.43;;
64871;SDS011;51351;51.450;6.614;2023-12-20T00:15:27;16.42;;;8.63;;
64871;SDS011;51351;51.450;6.614;2023-12-20T00:17:53;12.43;;;7.07;;
64871;SDS011;51351;51.450;6.614;2023-12-20T00:20:18;16.02;;;8.35;;
64871;SDS011;51351;51.450;6.614;2023-12-20T00:22:44;14.90;;;11.20;;
64871;SDS011;51351;51.450;6.614;2023-12-20T00:25:09;16.45;;;7.65;;
64871;SDS011;51351;51.450;6.614;2023-12-20T00:27:34;11.52;;;6.03;;
64871;SDS011;51351;51.450;6.614;2023-12-20T00:30:00;13.63;;;7.32;;
64871;SDS011;51351;51.450;6.614;2023-12-20T00:32:25;16.58;;;7.50;;
64871;SDS011;51351;51.450;6.614;2023-12-20T00:34:51;12.18;;;6.43;;
64871;SDS011;51351;51.450;6.614;2023-12-20T00:37:16;17.10;;;7.22;;
64871;SDS011;51351;51.450;6.614;2023-12-20T00:39:42;17.67;;;7.60;;
64871;SDS011;51351;51.450;6.614;2023-12-20T00:42:07;16.55;;;8.10;;
64871;SDS011;51351;51.450;6.614;2023-12-20T00:44:33;16.00;;;5.88;;
64871;SDS011;51351;51.450;6.614;2023-12-20T00:46:58;14.52;;;8.73;;
64871;SDS011;51351;51.450;6.614;2023-12-20T00:49:24;13.68;;;8.57;;
64871;SDS011;51351;51.450;6.614;2023-12-20T00:51:49;10.57;;;6.18;;
64871;SDS011;51351;51.450;6.614;2023-12-20T00:54:15;18.00;;;7.43;;
64871;SDS011;51351;51.450;6.614;2023-12-20T00:56:41;11.98;;;8.50;;
64871;SDS011;51351;51.450;6.614;2023-12-20T00:59:07;14.68;;;8.32;;
64871;SDS011;51351;51.450;6.614;2023-12-20T01:01:32;16.38;;;8.65;;
64871;SDS011;51351;51.450;6.614;2023-12-20T01:03:58;18.30;;;10.85;;
64871;SDS011;51351;51.450;6.614;2023-12-20T01:06:23;13.13;;;8.55;;
64871;SDS011;51351;51.450;6.614;2023-12-20T01:08:49;11.98;;;7.63;;
64871;SDS011;51351;51.450;6.614;2023-12-20T01:11:14;11.10;;;6.13;;
64871;SDS011;51351;51.450;6.614;2023-12-20T01:13:40;13.45;;;7.45;;
64871;SDS011;51351;51.450;6.614;2023-12-20T01:16:06;15.15;;;7.18;;
64871;SDS011;51351;51.450;6.614;2023-12-20T01:18:31;11.55;;;6.85;;
64871;SDS011;51351;51.450;6.614;2023-12-20T01:21:01;14.77;;;8.27;;
64871;SDS011;51351;51.450;6.614;2023-12-20T01:23:28;7.82;;;5.57;;
64871;SDS011;51351;51.450;6.614;2023-12-20T01:25:53;10.93;;;7.30;;
64871;SDS011;51351;51.450;6.614;2023-12-20T01:28:19;10.93;;;6.82;;
64871;SDS011;51351;51.450;6.614;2023-12-20T01:30:44;20.45;;;7.60;;
64871;SDS011;51351;51.450;6.614;2023-12-20T01:33:10;16.02;;;7.78;;
64871;SDS011;51351;51.450;6.614;2023-12-20T01:35:35;14.70;;;6.60;;
64871;SDS011;51351;51.450;6.614;2023-12-20T01:38:01;18.20;;;7.60;;
64871;SDS011;51351;51.450;6.614;2023-12-20T01:40:26;11.40;;;6.10;;
64871;SDS011;51351;51.450;6.614;2023-12-20T01:42:59;12.93;;;6.13;;
64871;SDS011;51351;51.450;6.614;2023-12-20T01:45:25;17.42;;;6.82;;
64871;SDS011;51351;51.450;6.614;2023-12-20T01:47:50;15.93;;;7.85;;
64871;SDS011;51351;51.450;6.614;2023-12-20T01:50:17;17.05;;;6.35;;
64871;SDS011;51351;51.450;6.614;2023-12-20T01:52:42;19.00;;;6.75;;
64871;SDS011;51351;51.450;6.614;2023-12-20T01:55:08;13.68;;;6.28;;
64871;SDS011;51351;51.450;6.614;2023-12-20T01:57:41;17.13;;;6.97;;
64871;SDS011;51351;51.450;6.614;2023-12-20T02:00:08;17.70;;;6.68;;
64871;SDS011;51351;51.450;6.614;2023-12-20T02:02:36;12.85;;;7.13;;
64871;SDS011;51351;51.450;6.614;2023-12-20T02:05:05;14.95;;;7.50;;
64871;SDS011;51351;51.450;6.614;2023-12-20T02:12:21;16.77;;;6.93;;
64871;SDS011;51351;51.450;6.614;2023-12-20T02:14:47;14.82;;;7.45;;
64871;SDS011;51351;51.450;6.614;2023-12-20T02:17:13;15.75;;;6.35;;
64871;SDS011;51351;51.450;6.614;2023-12-20T02:19:39;13.35;;;6.97;;
64871;SDS011;51351;51.450;6.614;2023-12-20T02:22:13;9.00;;;5.18;;
64871;SDS011;51351;51.450;6.614;2023-12-20T02:24:39;15.02;;;6.63;;
64871;SDS011;51351;51.450;6.614;2023-12-20T02:27:08;18.58;;;7.00;;
64871;SDS011;51351;51.450;6.614;2023-12-20T02:29:34;11.05;;;6.70;;
64871;SDS011;51351;51.450;6.614;2023-12-20T02:32:00;18.40;;;5.90;;
64871;SDS011;51351;51.450;6.614;2023-12-20T02:34:26;17.00;;;7.68;;
64871;SDS011;51351;51.450;6.614;2023-12-20T02:36:51;10.18;;;4.53;;
64871;SDS011;51351;51.450;6.614;2023-12-20T02:39:17;8.35;;;4.65;;
64871;SDS011;51351;51.450;6.614;2023-12-20T02:41:44;17.92;;;5.03;;
64871;SDS011;51351;51.450;6.614;2023-12-20T02:44:09;9.63;;;3.58;;
64871;SDS011;51351;51.450;6.614;2023-12-20T02:46:35;7.57;;;3.67;;
64871;SDS011;51351;51.450;6.614;2023-12-20T02:49:00;13.65;;;4.13;;
64871;SDS011;51351;51.450;6.614;2023-12-20T02:51:26;13.48;;;3.70;;
64871;SDS011;51351;51.450;6.614;2023-12-20T02:53:51;11.15;;;4.70;;
64871;SDS011;51351;51.450;6.614;2023-12-20T02:56:17;14.52;;;4.05;;
64871;SDS011;51351;51.450;6.614;2023-12-20T02:58:42;11.40;;;4.25;;
64871;SDS011;51351;51.450;6.614;2023-12-20T03:01:08;15.50;;;4.53;;
64871;SDS011;51351;51.450;6.614;2023-12-20T03:03:33;8.57;;;2.17;;
64871;SDS011;51351;51.450;6.614;2023-12-20T03:05:59;11.63;;;4.53;;
64871;SDS011;51351;51.450;6.614;2023-12-20T03:08:25;9.85;;;3.65;;
64871;SDS011;51351;51.450;6.614;2023-12-20T03:10:50;10.63;;;2.97;;
64871;SDS011;51351;51.450;6.614;2023-12-20T03:13:16;11.77;;;3.33;;
64871;SDS011;51351;51.450;6.614;2023-12-20T03:15:41;16.48;;;3.28;;
64871;SDS011;51351;51.450;6.614;2023-12-20T03:18:07;11.50;;;4.03;;
64871;SDS011;51351;51.450;6.614;2023-12-20T03:20:33;8.70;;;2.67;;
64871;SDS011;51351;51.450;6.614;2023-12-20T03:23:02;5.40;;;2.90;;
64871;SDS011;51351;51.450;6.614;2023-12-20T03:25:28;10.57;;;2.92;;
64871;SDS011;51351;51.450;6.614;2023-12-20T03:27:53;10.10;;;3.50;;
64871;SDS011;51351;51.450;6.614;2023-12-20T03:30:19;13.50;;;2.92;;
64871;SDS011;51351;51.450;6.614;2023-12-20T03:32:44;6.88;;;3.08;;
64871;SDS011;51351;51.450;6.614;2023-12-20T03:35:11;14.07;;;2.90;;
64871;SDS011;51351;51.450;6.614;2023-12-20T03:37:36;8.25;;;2.85;;
64871;SDS011;51351;51.450;6.614;2023-12-20T03:40:02;9.52;;;3.72;;
64871;SDS011;51351;51.450;6.614;2023-12-20T03:42:28;4.70;;;1.98;;
64871;SDS011;51351;51.450;6.614;2023-12-20T03:44:53;8.95;;;2.78;;
64871;SDS011;51351;51.450;6.614;2023-12-20T03:47:19;7.97;;;2.28;;
64871;SDS011;51351;51.450;6.614;2023-12-20T03:49:44;7.05;;;2.58;;
64871;SDS011;51351;51.450;6.614;2023-12-20T03:52:10;14.05;;;3.97;;
64871;SDS011;51351;51.450;6.614;2023-12-20T03:54:35;10.45;;;3.47;;
64871;SDS011;51351;51.450;6.614;2023-12-20T03:57:01;11.10;;;2.95;;
64871;SDS011;51351;51.450;6.614;2023-12-20T03:59:26;11.65;;;3.05;;
64871;SDS011;51351;51.450;6.614;2023-12-20T04:01:52;10.90;;;4.00;;
64871;SDS011;51351;51.450;6.614;2023-12-20T04:04:17;11.35;;;2.92;;
64871;SDS011;51351;51.450;6.614;2023-12-20T04:06:43;7.68;;;2.88;;
64871;SDS011;51351;51.450;6.614;2023-12-20T04:09:09;10.93;;;2.78;;
64871;SDS011;51351;51.450;6.614;2023-12-20T04:11:34;12.25;;;3.00;;
64871;SDS011;51351;51.450;6.614;2023-12-20T04:14:00;14.90;;;4.45;;
64871;SDS011;51351;51.450;6.614;2023-12-20T04:16:26;13.32;;;3.65;;
64871;SDS011;51351;51.450;6.614;2023-12-20T04:18:51;17.60;;;4.40;;
64871;SDS011;51351;51.450;6.614;2023-12-20T04:21:17;10.13;;;4.05;;
64871;SDS011;51351;51.450;6.614;2023-12-20T04:23:43;6.68;;;2.90;;
64871;SDS011;51351;51.450;6.614;2023-12-20T04:26:08;9.88;;;3.15;;
64871;SDS011;51351;51.450;6.614;2023-12-20T04:28:34;9.25;;;4.40;;
64871;SDS011;51351;51.450;6.614;2023-12-20T04:30:59;12.05;;;2.95;;
64871;SDS011;51351;51.450;6.614;2023-12-20T04:33:25;8.32;;;3.35;;
64871;SDS011;51351;51.450;6.614;2023-12-20T04:35:50;17.30;;;4.40;;
64871;SDS011;51351;51.450;6.614;2023-12-20T04:38:16;13.27;;;3.72;;
64871;SDS011;51351;51.450;6.614;2023-12-20T04:40:42;5.10;;;3.80;;
64871;SDS011;51351;51.450;6.614;2023-12-20T04:43:07;10.05;;;3.33;;
64871;SDS011;51351;51.450;6.614;2023-12-20T04:45:34;13.38;;;5.40;;
64871;SDS011;51351;51.450;6.614;2023-12-20T04:47:59;9.52;;;3.90;;
64871;SDS011;51351;51.450;6.614;2023-12-20T04:50:26;14.20;;;3.53;;
64871;SDS011;51351;51.450;6.614;2023-12-20T04:52:51;6.57;;;3.22;;
64871;SDS011;51351;51.450;6.614;2023-12-20T04:55:17;7.28;;;4.38;;
64871;SDS011;51351;51.450;6.614;2023-12-20T04:57:42;12.10;;;3.63;;
64871;SDS011;51351;51.450;6.614;2023-12-20T05:00:08;11.50;;;3.88;;
64871;SDS011;51351;51.450;6.614;2023-12-20T05:02:37;10.88;;;4.82;;
64871;SDS011;51351;51.450;6.614;2023-12-20T05:05:03;17.70;;;4.47;;
64871;SDS011;51351;51.450;6.614;2023-12-20T05:07:28;8.90;;;4.38;;
64871;SDS011;51351;51.450;6.614;2023-12-20T05:09:54;11.15;;;3.50;;
64871;SDS011;51351;51.450;6.614;2023-12-20T05:12:19;14.13;;;4.50;;
64871;SDS011;51351;51.450;6.614;2023-12-20T05:14:45;15.52;;;4.80;;
64871;SDS011;51351;51.450;6.614;2023-12-20T05:17:11;17.92;;;4.20;;
64871;SDS011;51351;51.450;6.614;2023-12-20T05:19:37;12.27;;;4.65;;
64871;SDS011;51351;51.450;6.614;2023-12-20T05:22:02;10.57;;;5.47;;
64871;SDS011;51351;51.450;6.614;2023-12-20T05:24:28;9.55;;;4.03;;
64871;SDS011;51351;51.450;6.614;2023-12-20T05:26:54;16.50;;;4.75;;
64871;SDS011;51351;51.450;6.614;2023-12-20T05:29:19;11.65;;;5.78;;
64871;SDS011;51351;51.450;6.614;2023-12-20T05:31:45;15.63;;;4.80;;
64871;SDS011;51351;51.450;6.614;2023-12-20T05:34:10;16.52;;;4.40;;
64871;SDS011;51351;51.450;6.614;2023-12-20T05:36:36;12.23;;;5.18;;
64871;SDS011;51351;51.450;6.614;2023-12-20T05:39:02;9.30;;;5.95;;
64871;SDS011;51351;51.450;6.614;2023-12-20T05:41:33;11.88;;;5.70;;
64871;SDS011;51351;51.450;6.614;2023-12-20T05:43:58;11.65;;;5.00;;
64871;SDS011;51351;51.450;6.614;2023-12-20T05:46:24;9.63;;;4.30;;
64871;SDS011;51351;51.450;6.614;2023-12-20T05:48:50;10.50;;;5.93;;
64871;SDS011;51351;51.450;6.614;2023-12-20T05:51:16;13.38;;;5.97;;
64871;SDS011;51351;51.450;6.614;2023-12-20T05:53:42;10.55;;;5.18;;
64871;SDS011;51351;51.450;6.614;2023-12-20T05:56:09;16.00;;;5.85;;
64871;SDS011;51351;51.450;6.614;2023-12-20T05:58:34;12.50;;;4.88;;
64871;SDS011;51351;51.450;6.614;2023-12-20T06:01:00;10.18;;;4.03;;
64871;SDS011;51351;51.450;6.614;2023-12-20T06:03:25;8.02;;;4.13;;
64871;SDS011;51351;51.450;6.614;2023-12-20T06:05:51;9.65;;;5.38;;
64871;SDS011;51351;51.450;6.614;2023-12-20T06:08:17;20.33;;;5.60;;
64871;SDS011;51351;51.450;6.614;2023-12-20T06:10:42;21.20;;;6.97;;
64871;SDS011;51351;51.450;6.614;2023-12-20T06:13:07;14.93;;;4.25;;
64871;SDS011;51351;51.450;6.614;2023-12-20T06:15:33;14.07;;;5.53;;
64871;SDS011;51351;51.450;6.614;2023-12-20T06:17:59;15.13;;;5.07;;
64871;SDS011;51351;51.450;6.614;2023-12-20T06:20:24;9.50;;;5.10;;
64871;SDS011;51351;51.450;6.614;2023-12-20T06:22:50;9.35;;;4.35;;
64871;SDS011;51351;51.450;6.614;2023-12-20T06:25:16;13.13;;;5.15;;
64871;SDS011;51351;51.450;6.614;2023-12-20T06:27:41;9.60;;;5.88;;
64871;SDS011;51351;51.450;6.614;2023-12-20T06:30:07;14.63;;;7.18;;
64871;SDS011;51351;51.450;6.614;2023-12-20T06:32:34;14.27;;;4.82;;
64871;SDS011;51351;51.450;6.614;2023-12-20T06:35:00;13.73;;;5.30;;
64871;SDS011;51351;51.450;6.614;2023-12-20T06:37:26;12.05;;;4.38;;
64871;SDS011;51351;51.450;6.614;2023-12-20T06:39:51;8.65;;;4.28;;
64871;SDS011;51351;51.450;6.614;2023-12-20T06:42:17;13.82;;;4.13;;
64871;SDS011;51351;51.450;6.614;2023-12-20T06:44:42;12.88;;;4.78;;
64871;SDS011;51351;51.450;6.614;2023-12-20T06:47:08;12.30;;;5.80;;
64871;SDS011;51351;51.450;6.614;2023-12-20T06:49:33;14.52;;;4.53;;
64871;SDS011;51351;51.450;6.614;2023-12-20T06:51:59;11.52;;;5.07;;
64871;SDS011;51351;51.450;6.614;2023-12-20T06:54:24;9.93;;;4.75;;
64871;SDS011;51351;51.450;6.614;2023-12-20T06:56:50;11.23;;;4.68;;
64871;SDS011;51351;51.450;6.614;2023-12-20T06:59:15;14.23;;;5.47;;
64871;SDS011;51351;51.450;6.614;2023-12-20T07:01:41;11.38;;;4.53;;
64871;SDS011;51351;51.450;6.614;2023-12-20T07:04:06;7.10;;;5.35;;
64871;SDS011;51351;51.450;6.614;2023-12-20T07:06:32;12.20;;;4.85;;
64871;SDS011;51351;51.450;6.614;2023-12-20T07:08:57;10.05;;;4.22;;
64871;SDS011;51351;51.450;6.614;2023-12-20T07:11:23;11.60;;;5.85;;
64871;SDS011;51351;51.450;6.614;2023-12-20T07:13:49;9.77;;;3.72;;
64871;SDS011;51351;51.450;6.614;2023-12-20T07:16:15;13.50;;;5.07;;
64871;SDS011;51351;51.450;6.614;2023-12-20T07:18:40;14.35;;;7.13;;
64871;SDS011;51351;51.450;6.614;2023-12-20T07:21:06;11.45;;;5.20;;
64871;SDS011;51351;51.450;6.614;2023-12-20T07:25:58;19.13;;;4.68;;
64871;SDS011;51351;51.450;6.614;2023-12-20T07:28:24;15.55;;;5.78;;
64871;SDS011;51351;51.450;6.614;2023-12-20T07:30:50;7.32;;;3.35;;
64871;SDS011;51351;51.450;6.614;2023-12-20T07:33:15;17.02;;;5.47;;
64871;SDS011;51351;51.450;6.614;2023-12-20T07:35:41;10.50;;;4.78;;
64871;SDS011;51351;51.450;6.614;2023-12-20T07:38:06;15.02;;;4.00;;
64871;SDS011;51351;51.450;6.614;2023-12-20T07:40:32;14.80;;;4.97;;
64871;SDS011;51351;51.450;6.614;2023-12-20T07:42:57;15.88;;;5.05;;
64871;SDS011;51351;51.450;6.614;2023-12-20T07:45:23;13.32;;;5.28;;
64871;SDS011;51351;51.450;6.614;2023-12-20T07:47:49;9.63;;;4.20;;
64871;SDS011;51351;51.450;6.614;2023-12-20T07:50:15;15.68;;;5.45;;
64871;SDS011;51351;51.450;6.614;2023-12-20T07:52:40;11.27;;;4.53;;
64871;SDS011;51351;51.450;6.614;2023-12-20T07:55:06;9.43;;;4.68;;
64871;SDS011;51351;51.450;6.614;2023-12-20T07:57:32;13.15;;;5.22;;
64871;SDS011;51351;51.450;6.614;2023-12-20T07:59:57;14.10;;;7.03;;
64871;SDS011;51351;51.450;6.614;2023-12-20T08:02:23;13.18;;;4.95;;
64871;SDS011;51351;51.450;6.614;2023-12-20T08:04:49;15.23;;;5.97;;
64871;SDS011;51351;51.450;6.614;2023-12-20T08:07:14;17.52;;;5.55;;
64871;SDS011;51351;51.450;6.614;2023-12-20T08:09:40;10.07;;;5.43;;
64871;SDS011;51351;51.450;6.614;2023-12-20T08:12:05;12.73;;;4.28;;
64871;SDS011;51351;51.450;6.614;2023-12-20T08:14:31;14.20;;;5.90;;
64871;SDS011;51351;51.450;6.614;2023-12-20T08:16:56;8.75;;;5.07;;
64871;SDS011;51351;51.450;6.614;2023-12-20T08:19:22;13.52;;;6.05;;
64871;SDS011;51351;51.450;6.614;2023-12-20T08:21:48;10.35;;;5.25;;
64871;SDS011;51351;51.450;6.614;2023-12-20T08:24:13;13.00;;;4.68;;
64871;SDS011;51351;51.450;6.614;2023-12-20T08:26:39;13.48;;;3.53;;
64871;SDS011;51351;51.450;6.614;2023-12-20T08:29:04;9.50;;;4.25;;
64871;SDS011;51351;51.450;6.614;2023-12-20T08:31:30;5.25;;;3.58;;
64871;SDS011;51351;51.450;6.614;2023-12-20T08:33:58;11.23;;;4.15;;
64871;SDS011;51351;51.450;6.614;2023-12-20T08:36:23;12.18;;;4.25;;
64871;SDS011;51351;51.450;6.614;2023-12-20T08:38:49;11.85;;;3.00;;
64871;SDS011;51351;51.450;6.614;2023-12-20T08:41:15;18.13;;;5.72;;
64871;SDS011;51351;51.450;6.614;2023-12-20T08:43:42;12.55;;;4.70;;
64871;SDS011;51351;51.450;6.614;2023-12-20T08:46:08;14.43;;;3.38;;
64871;SDS011;51351;51.450;6.614;2023-12-20T08:48:37;10.88;;;3.75;;
64871;SDS011;51351;51.450;6.614;2023-12-20T08:51:03;9.63;;;3.17;;
64871;SDS011;51351;51.450;6.614;2023-12-20T08:53:29;10.93;;;2.97;;
64871;SDS011;51351;51.450;6.614;2023-12-20T08:55:54;15.60;;;2.28;;
64871;SDS011;51351;51.450;6.614;2023-12-20T08:58:20;13.13;;;3.67;;
64871;SDS011;51351;51.450;6.614;2023-12-20T09:00:45;8.88;;;3.35;;
64871;SDS011;51351;51.450;6.614;2023-12-20T09:03:11;13.95;;;5.20;;
64871;SDS011;51351;51.450;6.614;2023-12-20T09:05:36;11.75;;;3.25;;
64871;SDS011;51351;51.450;6.614;2023-12-20T09:08:02;9.43;;;3.78;;
64871;SDS011;51351;51.450;6.614;2023-12-20T09:10:27;9.48;;;2.85;;
64871;SDS011;51351;51.450;6.614;2023-12-20T09:12:53;14.38;;;3.47;;
64871;SDS011;51351;51.450;6.614;2023-12-20T09:15:22;13.85;;;5.63;;
64871;SDS011;51351;51.450;6.614;2023-12-20T09:17:48;12.82;;;3.55;;
64871;SDS011;51351;51.450;6.614;2023-12-20T09:20:14;10.02;;;2.47;;
64871;SDS011;51351;51.450;6.614;2023-12-20T09:22:40;6.90;;;3.10;;
64871;SDS011;51351;51.450;6.614;2023-12-20T09:25:07;14.32;;;4.32;;
64871;SDS011;51351;51.450;6.614;2023-12-20T09:27:33;8.45;;;2.92;;
64871;SDS011;51351;51.450;6.614;2023-12-20T09:29:58;10.70;;;3.67;;
64871;SDS011;51351;51.450;6.614;2023-12-20T09:32:24;9.43;;;4.32;;
64871;SDS011;51351;51.450;6.614;2023-12-20T09:34:49;15.00;;;3.20;;
64871;SDS011;51351;51.450;6.614;2023-12-20T09:37:15;12.45;;;3.40;;
64871;SDS011;51351;51.450;6.614;2023-12-20T09:39:40;12.60;;;3.75;;
64871;SDS011;51351;51.450;6.614;2023-12-20T09:42:06;12.43;;;4.03;;
64871;SDS011;51351;51.450;6.614;2023-12-20T09:44:32;8.95;;;3.78;;
64871;SDS011;51351;51.450;6.614;2023-12-20T09:47:05;10.48;;;3.35;;
64871;SDS011;51351;51.450;6.614;2023-12-20T09:49:31;6.32;;;3.40;;
64871;SDS011;51351;51.450;6.614;2023-12-20T09:51:58;27.73;;;4.68;;
64871;SDS011;51351;51.450;6.614;2023-12-20T09:54:25;7.80;;;3.85;;
64871;SDS011;51351;51.450;6.614;2023-12-20T09:56:53;8.77;;;3.83;;
64871;SDS011;51351;51.450;6.614;2023-12-20T09:59:19;16.25;;;5.50;;
64871;SDS011;51351;51.450;6.614;2023-12-20T10:01:44;13.13;;;3.30;;
64871;SDS011;51351;51.450;6.614;2023-12-20T10:04:10;10.30;;;4.40;;
64871;SDS011;51351;51.450;6.614;2023-12-20T10:06:39;12.05;;;3.28;;
64871;SDS011;51351;51.450;6.614;2023-12-20T10:09:05;14.27;;;4.97;;
64871;SDS011;51351;51.450;6.614;2023-12-20T10:11:30;7.80;;;3.25;;
64871;SDS011;51351;51.450;6.614;2023-12-20T10:13:59;13.90;;;4.50;;
64871;SDS011;51351;51.450;6.614;2023-12-20T10:16:28;12.45;;;4.22;;
64871;SDS011;51351;51.450;6.614;2023-12-20T10:18:54;11.60;;;4.38;;
64871;SDS011;51351;51.450;6.614;2023-12-20T10:21:19;6.72;;;3.70;;
64871;SDS011;51351;51.450;6.614;2023-12-20T10:23:46;14.63;;;4.05;;
64871;SDS011;51351;51.450;6.614;2023-12-20T10:26:26;7.70;;;3.47;;
64871;SDS011;51351;51.450;6.614;2023-12-20T10:28:53;6.25;;;3.70;;
64871;SDS011;51351;51.450;6.614;2023-12-20T10:31:27;9.68;;;4.82;;
64871;SDS011;51351;51.450;6.614;2023-12-20T10:33:59;9.55;;;4.05;;
64871;SDS011;51351;51.450;6.614;2023-12-20T10:36:28;10.75;;;3.97;;
64871;SDS011;51351;51.450;6.614;2023-12-20T10:38:56;11.65;;;4.45;;
64871;SDS011;51351;51.450;6.614;2023-12-20T10:41:25;7.78;;;4.93;;
64871;SDS011;51351;51.450;6.614;2023-12-20T10:43:56;10.65;;;4.22;;
64871;SDS011;51351;51.450;6.614;2023-12-20T10:46:25;4.90;;;2.88;;
64871;SDS011;51351;51.450;6.614;2023-12-20T10:48:55;8.63;;;3.33;;
64871;SDS011;51351;51.450;6.614;2023-12-20T10:51:22;6.05;;;3.42;;
64871;SDS011;51351;51.450;6.614;2023-12-20T10:53:49;9.18;;;4.70;;
64871;SDS011;51351;51.450;6.614;2023-12-20T10:56:16;8.38;;;3.72;;
64871;SDS011;51351;51.450;6.614;2023-12-20T10:58:49;11.30;;;3.90;;
64871;SDS011;51351;51.450;6.614;2023-12-20T11:01:18;10.63;;;4.90;;
64871;SDS011;51351;51.450;6.614;2023-12-20T11:03:49;9.40;;;4.03;;
64871;SDS011;51351;51.450;6.614;2023-12-20T11:11:46;13.73;;;3.83;;
64871;SDS011;51351;51.450;6.614;2023-12-20T11:14:51;9.50;;;4.35;;
64871;SDS011;51351;51.450;6.614;2023-12-20T11:17:16;15.85;;;5.28;;
64871;SDS011;51351;51.450;6.614;2023-12-20T11:22:26;10.80;;;3.45;;
64871;SDS011;51351;51.450;6.614;2023-12-20T11:24:58;9.27;;;4.35;;
64871;SDS011;51351;51.450;6.614;2023-12-20T11:27:28;9.57;;;4.35;;
64871;SDS011;51351;51.450;6.614;2023-12-20T11:37:31;15.07;;;4.50;;
64871;SDS011;51351;51.450;6.614;2023-12-20T11:40:07;12.27;;;5.20;;
64871;SDS011;51351;51.450;6.614;2023-12-20T11:42:40;13.07;;;3.97;;
64871;SDS011;51351;51.450;6.614;2023-12-20T11:45:19;8.88;;;3.90;;
64871;SDS011;51351;51.450;6.614;2023-12-20T11:47:50;7.72;;;4.57;;
64871;SDS011;51351;51.450;6.614;2023-12-20T11:55:07;10.63;;;3.55;;
64871;SDS011;51351;51.450;6.614;2023-12-20T11:57:33;15.35;;;4.88;;
64871;SDS011;51351;51.450;6.614;2023-12-20T11:59:59;10.00;;;4.88;;
64871;SDS011;51351;51.450;6.614;2023-12-20T12:02:25;9.27;;;4.18;;
64871;SDS011;51351;51.450;6.614;2023-12-20T12:04:50;9.05;;;3.80;;
64871;SDS011;51351;51.450;6.614;2023-12-20T12:07:16;7.07;;;3.88;;
64871;SDS011;51351;51.450;6.614;2023-12-20T12:09:42;10.73;;;3.88;;
64871;SDS011;51351;51.450;6.614;2023-12-20T12:12:08;9.57;;;3.80;;
64871;SDS011;51351;51.450;6.614;2023-12-20T12:14:34;8.13;;;4.80;;
64871;SDS011;51351;51.450;6.614;2023-12-20T12:17:02;11.98;;;5.15;;
64871;SDS011;51351;51.450;6.614;2023-12-20T12:19:28;8.13;;;4.20;;
64871;SDS011;51351;51.450;6.614;2023-12-20T12:22:04;12.20;;;4.85;;
64871;SDS011;51351;51.450;6.614;2023-12-20T12:24:32;8.57;;;3.97;;
64871;SDS011;51351;51.450;6.614;2023-12-20T12:26:58;10.32;;;4.07;;
64871;SDS011;51351;51.450;6.614;2023-12-20T12:29:23;14.18;;;4.88;;
64871;SDS011;51351;51.450;6.614;2023-12-20T12:31:50;12.32;;;4.45;;
64871;SDS011;51351;51.450;6.614;2023-12-20T12:34:16;9.85;;;4.25;;
64871;SDS011;51351;51.450;6.614;2023-12-20T12:36:43;7.50;;;3.55;;
64871;SDS011;51351;51.450;6.614;2023-12-20T12:39:09;12.63;;;4.40;;
64871;SDS011;51351;51.450;6.614;2023-12-20T12:41:37;10.35;;;4.18;;
64871;SDS011;51351;51.450;6.614;2023-12-20T12:44:02;8.55;;;5.00;;
64871;SDS011;51351;51.450;6.614;2023-12-20T12:46:28;9.93;;;3.60;;
64871;SDS011;51351;51.450;6.614;2023-12-20T12:48:53;10.70;;;3.78;;
64871;SDS011;51351;51.450;6.614;2023-12-20T12:51:19;11.27;;;3.40;;
64871;SDS011;51351;51.450;6.614;2023-12-20T12:53:44;7.88;;;3.65;;
64871;SDS011;51351;51.450;6.614;2023-12-20T12:56:10;10.88;;;3.75;;
64871;SDS011;51351;51.450;6.614;2023-12-20T12:58:38;10.32;;;5.18;;
64871;SDS011;51351;51.450;6.614;2023-12-20T13:01:04;7.18;;;3.20;;
64871;SDS011;51351;51.450;6.614;2023-12-20T13:03:29;13.43;;;4.38;;
64871;SDS011;51351;51.450;6.614;2023-12-20T13:05:55;9.48;;;5.53;;
64871;SDS011;51351;51.450;6.614;2023-12-20T13:08:21;9.93;;;3.55;;
64871;SDS011;51351;51.450;6.614;2023-12-20T13:10:46;14.65;;;4.35;;
64871;SDS011;51351;51.450;6.614;2023-12-20T13:13:12;9.65;;;5.78;;
64871;SDS011;51351;51.450;6.614;2023-12-20T13:15:37;11.35;;;5.50;;
64871;SDS011;51351;51.450;6.614;2023-12-20T13:18:03;10.07;;;6.30;;
64871;SDS011;51351;51.450;6.614;2023-12-20T13:20:31;9.73;;;5.72;;
64871;SDS011;51351;51.450;6.614;2023-12-20T13:22:56;10.55;;;4.68;;
64871;SDS011;51351;51.450;6.614;2023-12-20T13:25:22;8.13;;;3.65;;
64871;SDS011;51351;51.450;6.614;2023-12-20T13:27:48;9.63;;;4.03;;
64871;SDS011;51351;51.450;6.614;2023-12-20T13:30:15;10.57;;;5.60;;
64871;SDS011;51351;51.450;6.614;2023-12-20T13:32:42;11.75;;;4.55;;
64871;SDS011;51351;51.450;6.614;2023-12-20T13:35:08;11.70;;;5.00;;
64871;SDS011;51351;51.450;6.614;2023-12-20T13:37:37;12.43;;;5.63;;
64871;SDS011;51351;51.450;6.614;2023-12-20T13:40:04;7.97;;;5.00;;
64871;SDS011;51351;51.450;6.614;2023-12-20T13:42:29;11.93;;;5.05;;
64871;SDS011;51351;51.450;6.614;2023-12-20T13:44:55;10.57;;;5.72;;
64871;SDS011;51351;51.450;6.614;2023-12-20T13:47:21;10.35;;;5.43;;
64871;SDS011;51351;51.450;6.614;2023-12-20T13:49:46;8.48;;;5.53;;
64871;SDS011;51351;51.450;6.614;2023-12-20T13:52:12;11.45;;;6.70;;
64871;SDS011;51351;51.450;6.614;2023-12-20T13:54:38;9.20;;;5.13;;
64871;SDS011;51351;51.450;6.614;2023-12-20T13:57:03;11.68;;;5.68;;
64871;SDS011;51351;51.450;6.614;2023-12-20T13:59:29;10.57;;;8.20;;
64871;SDS011;51351;51.450;6.614;2023-12-20T14:01:55;11.95;;;4.82;;
64871;SDS011;51351;51.450;6.614;2023-12-20T14:06:47;10.80;;;6.07;;
64871;SDS011;51351;51.450;6.614;2023-12-20T14:09:13;13.55;;;5.85;;
64871;SDS011;51351;51.450;6.614;2023-12-20T14:11:40;11.85;;;5.93;;
64871;SDS011;51351;51.450;6.614;2023-12-20T14:16:34;13.50;;;6.72;;
64871;SDS011;51351;51.450;6.614;2023-12-20T14:19:00;9.68;;;5.45;;
64871;SDS011;51351;51.450;6.614;2023-12-20T14:21:28;8.02;;;4.32;;
64871;SDS011;51351;51.450;6.614;2023-12-20T14:23:53;14.15;;;5.45;;
64871;SDS011;51351;51.450;6.614;2023-12-20T14:26:19;8.98;;;4.90;;
64871;SDS011;51351;51.450;6.614;2023-12-20T14:28:44;10.80;;;5.07;;
64871;SDS011;51351;51.450;6.614;2023-12-20T14:31:10;11.80;;;5.88;;
64871;SDS011;51351;51.450;6.614;2023-12-20T14:33:35;9.93;;;4.15;;
64871;SDS011;51351;51.450;6.614;2023-12-20T14:36:03;14.88;;;5.50;;
64871;SDS011;51351;51.450;6.614;2023-12-20T14:38:33;13.95;;;5.30;;
64871;SDS011;51351;51.450;6.614;2023-12-20T14:40:58;9.32;;;5.55;;
64871;SDS011;51351;51.450;6.614;2023-12-20T14:43:24;10.18;;;6.22;;
64871;SDS011;51351;51.450;6.614;2023-12-20T14:45:51;15.23;;;6.00;;
64871;SDS011;51351;51.450;6.614;2023-12-20T14:48:17;11.30;;;6.72;;
64871;SDS011;51351;51.450;6.614;2023-12-20T14:50:43;17.90;;;5.00;;
64871;SDS011;51351;51.450;6.614;2023-12-20T14:53:09;9.82;;;6.22;;
64871;SDS011;51351;51.450;6.614;2023-12-20T14:55:35;8.68;;;4.95;;
64871;SDS011;51351;51.450;6.614;2023-12-20T14:58:01;15.18;;;5.47;;
64871;SDS011;51351;51.450;6.614;2023-12-20T15:00:26;10.43;;;4.85;;
64871;SDS011;51351;51.450;6.614;2023-12-20T15:02:53;14.50;;;6.57;;
64871;SDS011;51351;51.450;6.614;2023-12-20T15:05:21;15.05;;;5.97;;